Time;durP1;ratioP1;P1;durP2;ratioP2;P2;SDS_P1;SDS_P2;PMS_P1;PMS_P2;Temp;Humidity;BMP_temperature;BMP_pressure;BME280_temperature;BME280_humidity;BME280_pressure;Samples;Min_cycle;Max_cycle;Signal;HPM_P1;HPM_P2
2021/09/16 00:05:58;;;;;;;1999.90;999.90;;;;;;;21.75;87.95;100594.03;15824210;28;20047;-59
2021/09/16 00:13:32;;;;;;;1999.90;999.90;;;;;;;21.67;88.17;100586.75;15866459;28;20040;-61
2021/09/16 00:21:19;;;;;;;1999.90;999.90;;;;;;;21.60;88.52;100583.97;15825460;28;20734;-61
2021/09/16 00:28:54;;;;;;;1999.90;999.90;;;;;;;21.65;88.57;100585.56;15806192;28;20035;-61
2021/09/16 00:36:40;;;;;;;1999.90;999.90;;;;;;;21.75;88.47;100607.41;15827817;28;20576;-61
2021/09/16 00:44:36;;;;;;;1999.90;999.90;;;;;;;21.75;88.01;100605.38;15809717;28;20035;-61
2021/09/16 00:52:10;;;;;;;1999.90;999.90;;;;;;;21.81;87.75;100615.09;15859408;28;20086;-57
2021/09/16 00:59:45;;;;;;;1999.90;999.90;;;;;;;21.67;87.53;100622.84;15804443;28;20075;-57
2021/09/16 01:07:17;;;;;;;1999.90;999.90;;;;;;;21.73;87.00;100632.59;15845778;28;20051;-58
2021/09/16 01:14:51;;;;;;;1999.90;999.90;;;;;;;21.52;87.67;100625.75;15784876;28;20401;-57
2021/09/16 01:22:24;;;;;;;1999.90;999.90;;;;;;;21.49;86.78;100634.28;15823397;28;20500;-58
2021/09/16 01:29:57;;;;;;;;;;;;;;;21.49;85.87;100640.78;15838932;28;20059;-61
2021/09/16 01:37:29;;;;;;;1999.90;999.90;;;;;;;21.37;86.06;100644.06;15814029;28;19974;-61
2021/09/16 01:45:03;;;;;;;1999.90;999.90;;;;;;;21.47;85.17;100650.94;15832205;28;20043;-60
2021/09/16 01:52:36;;;;;;;1999.90;999.90;;;;;;;21.42;85.26;100654.16;15841192;28;20042;-58
2021/09/16 02:00:11;;;;;;;1999.90;999.90;;;;;;;21.37;85.39;100657.44;15830655;28;20654;-61
2021/09/16 02:07:46;;;;;;;1999.90;999.90;;;;;;;21.23;85.28;100663.88;15854859;28;20081;-61
2021/09/16 02:15:22;;;;;;;1999.90;999.90;;;;;;;21.15;84.75;100665.91;15814395;28;20036;-61
2021/09/16 02:23:07;;;;;;;;;;;;;;;;;;;;;
2021/09/16 02:31:25;;;;;;;1999.90;999.90;;;;;;;21.26;84.45;100674.47;15819603;28;20497;-61
2021/09/16 02:39:37;;;;;;;1999.90;999.90;;;;;;;21.16;84.23;100673.25;15822481;28;20473;-60
2021/09/16 02:47:12;;;;;;;1999.90;999.90;;;;;;;21.18;83.87;100681.34;15838753;28;20556;-60
2021/09/16 02:54:44;;;;;;;1999.90;999.90;;;;;;;21.19;83.65;100689.44;15822628;28;20460;-61
2021/09/16 03:02:21;;;;;;;1999.90;999.90;;;;;;;21.09;83.74;100681.75;15834406;28;20044;-60
2021/09/16 03:09:53;;;;;;;1999.90;999.90;;;;;;;21.00;84.62;100681.34;15842998;28;20542;-60
2021/09/16 03:17:26;;;;;;;1999.90;999.90;;;;;;;21.10;84.06;100680.53;15820572;28;20044;-60
2021/09/16 03:24:59;;;;;;;1999.90;999.90;;;;;;;21.15;84.24;100688.63;15846805;28;20539;-61
2021/09/16 03:32:33;;;;;;;1999.90;999.90;;;;;;;21.16;84.07;100693.09;15829088;28;20491;-61
2021/09/16 03:40:06;;;;;;;1999.90;999.90;;;;;;;21.17;84.13;100697.56;15829638;28;20036;-61
2021/09/16 03:47:40;;;;;;;1999.90;999.90;;;;;;;20.99;84.51;100702.41;15869671;28;20424;-61
2021/09/16 03:55:13;;;;;;;1999.90;999.90;;;;;;;20.94;85.23;100697.13;15828393;28;20044;-61
2021/09/16 04:02:47;;;;;;;1999.90;999.90;;;;;;;20.96;85.26;100703.22;15847808;28;20050;-59
2021/09/16 04:10:19;;;;;;;1999.90;999.90;;;;;;;20.83;84.71;100701.97;15863298;28;20301;-61
2021/09/16 04:17:57;;;;;;;1999.90;999.90;;;;;;;20.89;84.97;100706.84;15848591;28;20535;-61
2021/09/16 04:25:49;;;;;;;1999.90;999.90;;;;;;;20.80;85.53;100717.78;15833408;28;20669;-60
2021/09/16 04:33:27;;;;;;;1999.90;999.90;;;;;;;20.62;84.88;100722.59;15824223;28;20047;-61
2021/09/16 04:41:00;;;;;;;1999.90;999.90;;;;;;;20.43;83.99;100730.25;15840374;28;20401;-61
2021/09/16 04:48:41;;;;;;;1999.90;999.90;;;;;;;20.28;83.86;100728.53;15856855;28;20725;-61
2021/09/16 04:56:37;;;;;;;1999.90;999.90;;;;;;;20.31;82.96;100749.59;15814880;28;20508;-60
2021/09/16 05:04:16;;;;;;;1999.90;999.90;;;;;;;20.04;82.35;100751.91;15839255;28;20043;-60
2021/09/16 05:12:17;;;;;;;1999.90;999.90;;;;;;;19.97;81.31;100757.53;15859641;27;20046;-59
2021/09/16 05:20:33;;;;;;;1999.90;999.90;;;;;;;19.74;80.32;100769.13;15833312;28;20048;-61
2021/09/16 05:28:05;;;;;;;1999.90;999.90;;;;;;;19.70;80.37;100774.78;15809639;28;20068;-61
2021/09/16 05:35:40;;;;;;;1999.90;999.90;;;;;;;19.72;80.18;100783.69;15826364;28;20060;-61
2021/09/16 05:43:13;;;;;;;1999.90;999.90;;;;;;;19.54;80.91;100797.66;15805995;28;20040;-61
2021/09/16 05:50:48;;;;;;;1999.90;999.90;;;;;;;19.72;80.51;100792.19;15864155;28;20040;-61
2021/09/16 05:58:51;;;;;;;1999.90;999.90;;;;;;;19.74;80.01;100797.44;15779777;28;20064;-61
2021/09/16 06:06:26;;;;;;;1999.90;999.90;;;;;;;19.70;79.89;100793.78;15784650;28;20469;-60
2021/09/16 06:13:58;;;;;;;1999.90;999.90;;;;;;;20.01;78.88;100810.19;15784753;28;20131;-61
2021/09/16 06:21:32;;;;;;;1999.90;999.90;;;;;;;19.85;78.95;100804.78;15800840;28;20093;-61
2021/09/16 06:29:05;;;;;;;1999.90;999.90;;;;;;;19.85;77.63;100799.13;15810158;28;20047;-58
2021/09/16 06:36:38;;;;;;;1999.90;999.90;;;;;;;19.83;77.21;100815.72;15793284;28;20048;-60
2021/09/16 06:44:12;;;;;;;1999.90;999.90;;;;;;;19.82;78.86;100824.59;15799362;28;20043;-59
2021/09/16 06:51:46;;;;;;;1999.90;999.90;;;;;;;19.84;77.87;100837.16;15856276;28;20511;-60
2021/09/16 06:59:18;;;;;;;1999.90;999.90;;;;;;;19.79;77.63;100839.53;15856228;28;20044;-59
2021/09/16 07:06:52;;;;;;;1999.90;999.90;;;;;;;19.96;76.39;100852.19;15873877;28;20049;-59
2021/09/16 07:14:26;;;;;;;1999.90;999.90;;;;;;;20.01;75.72;100852.66;15855556;28;20047;-59
2021/09/16 07:22:00;;;;;;;1999.90;999.90;;;;;;;20.23;75.20;100855.63;15872680;28;20062;-60
2021/09/16 07:29:32;;;;;;;1999.90;999.90;;;;;;;20.14;73.53;100864.47;15853919;28;20093;-61
2021/09/16 07:37:06;;;;;;;1999.90;999.90;;;;;;;19.91;72.03;100864.72;15851102;28;20047;-60
2021/09/16 07:44:39;;;;;;;1999.90;999.90;;;;;;;20.31;71.98;100869.41;15852789;28;20074;-59
2021/09/16 07:52:13;;;;;;;1999.90;999.90;;;;;;;20.39;70.16;100873.09;15870374;28;20067;-60
2021/09/16 07:59:45;;;;;;;1999.90;999.90;;;;;;;20.59;68.96;100877.28;15851427;28;20160;-61
2021/09/16 08:07:28;;;;;;;1999.90;999.90;;;;;;;21.44;65.58;100888.13;15868982;28;20040;-60
2021/09/16 08:15:00;;;;;;;1999.90;999.90;;;;;;;21.25;63.93;100888.47;15868986;28;20043;-61
2021/09/16 08:22:36;;;;;;;1999.90;999.90;;;;;;;21.82;63.60;100888.56;15868466;28;20055;-60
2021/09/16 08:30:33;;;;;;;1999.90;999.90;;;;;;;21.43;62.65;100891.38;15840559;28;20044;-60
2021/09/16 08:38:35;;;;;;;1999.90;999.90;;;;;;;20.82;65.61;100901.69;15867395;28;20069;-60
2021/09/16 08:46:46;;;;;;;1999.90;999.90;;;;;;;20.39;66.86;100910.75;15835812;28;20417;-59
2021/09/16 08:54:34;;;;;;;;;;;;;;;20.72;65.49;100904.09;15848946;28;20039;-59
2021/09/16 09:02:33;;;;;;;1999.90;999.90;;;;;;;21.39;64.67;100908.41;15841592;28;19927;-58
2021/09/16 09:10:52;;;;;;;1999.90;999.90;;;;;;;21.39;63.70;100914.09;15848065;28;20036;-58
2021/09/16 09:18:43;;;;;;;1999.90;999.90;;;;;;;21.39;61.79;100924.63;15841815;28;20063;-57
2021/09/16 09:26:55;;;;;;;1999.90;999.90;;;;;;;20.81;59.90;100929.25;15822826;28;20059;-61
2021/09/16 09:34:33;;;;;;;1999.90;999.90;;;;;;;21.25;59.67;100926.16;15865058;28;20048;-60
2021/09/16 09:42:41;;;;;;;;;;;;;;;;;;;;;
2021/09/16 09:50:19;;;;;;;1999.90;999.90;;;;;;;20.70;59.28;100917.84;15844896;28;20386;-60
2021/09/16 09:58:15;;;;;;;1999.90;999.90;;;;;;;20.45;60.65;100912.06;15863977;28;20119;-58
2021/09/16 10:05:49;;;;;;;1999.90;999.90;;;;;;;20.51;59.24;100920.16;15858881;28;20051;-58
2021/09/16 10:13:21;;;;;;;1999.90;999.90;;;;;;;20.74;58.58;100921.53;15877141;28;20051;-61
2021/09/16 10:20:55;;;;;;;1999.90;999.90;;;;;;;20.62;58.29;100916.19;15840811;28;20046;-58
2021/09/16 10:28:38;;;;;;;1999.90;999.90;;;;;;;21.09;58.52;100914.38;15875588;28;20047;-60
2021/09/16 10:36:13;;;;;;;1999.90;999.90;;;;;;;21.06;60.28;100918.03;15875746;28;20044;-59
2021/09/16 10:43:46;;;;;;;1999.90;999.90;;;;;;;20.75;58.16;100914.66;15856828;28;20046;-58
2021/09/16 10:51:39;;;;;;;1999.90;999.90;;;;;;;20.92;58.38;100917.94;15875169;28;20532;-59
2021/09/16 10:59:11;;;;;;;1999.90;999.90;;;;;;;21.27;58.10;100922.97;15855692;28;20048;-59
2021/09/16 11:06:46;;;;;;;1999.90;999.90;;;;;;;21.34;56.42;100922.97;15873650;28;20039;-60
2021/09/16 11:14:39;;;;;;;1999.90;999.90;;;;;;;21.39;55.39;100925.44;15854624;28;20112;-60
2021/09/16 11:22:20;;;;;;;1999.90;999.90;;;;;;;21.39;55.58;100921.78;15872317;28;20074;-60
2021/09/16 11:29:52;;;;;;;1999.90;999.90;;;;;;;21.42;55.72;100927.47;15871545;28;20421;-60
2021/09/16 11:37:31;;;;;;;1999.90;999.90;;;;;;;21.68;54.42;100929.16;15853876;28;20085;-60
2021/09/16 11:45:10;;;;;;;1999.90;999.90;;;;;;;21.04;55.28;100938.25;15870443;28;20094;-60
2021/09/16 11:52:48;;;;;;;1999.90;999.90;;;;;;;21.50;56.31;100939.66;15870550;28;20052;-60
2021/09/16 12:00:32;;;;;;;1999.90;999.90;;;;;;;21.97;56.24;100935.63;15870084;28;20130;-60
2021/09/16 12:08:11;;;;;;;1999.90;999.90;;;;;;;21.81;55.85;100940.91;15870040;28;20043;-58
2021/09/16 12:15:45;;;;;;;1999.90;999.90;;;;;;;21.81;56.85;100941.72;15868999;28;20079;-60
2021/09/16 12:23:43;;;;;;;1999.90;999.90;;;;;;;22.14;53.72;100920.66;15849984;28;20131;-60
2021/09/16 12:31:46;;;;;;;1999.90;999.90;;;;;;;21.83;55.76;100925.09;15860758;28;20527;-57
2021/09/16 12:39:21;;;;;;;1999.90;999.90;;;;;;;22.13;54.44;100926.75;15848727;28;20044;-58
2021/09/16 12:46:58;;;;;;;1999.90;999.90;;;;;;;21.66;55.64;100913.72;15867056;28;20510;-61
2021/09/16 12:54:33;;;;;;;1999.90;999.90;;;;;;;25.91;45.61;100921.59;15848975;28;20381;-60
2021/09/16 13:02:24;;;;;;;1999.90;999.90;;;;;;;33.04;33.13;100926.13;15848151;28;20047;-59
2021/09/16 13:10:16;;;;;;;1999.90;999.90;;;;;;;24.21;47.72;100915.97;15866005;28;20047;-59
2021/09/16 13:17:49;;;;;;;1999.90;999.90;;;;;;;22.81;50.83;100913.16;15847824;28;20043;-59
2021/09/16 13:25:23;;;;;;;;;;;;;;;22.74;52.90;100893.31;15869169;28;20047;-59
2021/09/16 13:32:55;;;;;;;1999.90;999.90;;;;;;;22.46;53.80;100900.69;15860075;28;19973;-59
2021/09/16 13:40:29;;;;;;;1999.90;999.90;;;;;;;21.94;55.48;100895.88;15863762;28;20051;-60
2021/09/16 13:48:01;;;;;;;1999.90;999.90;;;;;;;21.84;56.06;100888.97;15856510;28;20040;-61
2021/09/16 13:55:36;;;;;;;1999.90;999.90;;;;;;;21.43;56.41;100895.03;15857643;28;20051;-60
2021/09/16 14:03:13;;;;;;;1999.90;999.90;;;;;;;21.26;57.13;100888.13;15856032;28;20051;-60
2021/09/16 14:10:47;;;;;;;1999.90;999.90;;;;;;;21.38;59.26;100898.28;15857294;28;20128;-61
2021/09/16 14:18:21;;;;;;;1999.90;999.90;;;;;;;21.09;59.06;100902.22;15856274;28;20100;-61
2021/09/16 14:25:55;;;;;;;1999.90;999.90;;;;;;;21.44;58.56;100893.81;15835552;28;20050;-61
2021/09/16 14:33:27;;;;;;;1999.90;999.90;;;;;;;21.08;59.01;100895.72;15861611;28;20047;-59
2021/09/16 14:41:00;;;;;;;1999.90;999.90;;;;;;;21.51;59.77;100898.69;15857188;27;20085;-61
2021/09/16 14:48:33;;;;;;;1999.90;999.90;;;;;;;21.56;59.45;100899.09;15868651;28;20135;-61
2021/09/16 14:56:07;;;;;;;;;;;;;;;21.18;60.57;100891.31;15867294;28;20040;-59
2021/09/16 15:03:39;;;;;;;1999.90;999.90;;;;;;;21.33;61.00;100884.47;15852761;28;19927;-60
2021/09/16 15:11:14;;;;;;;1999.90;999.90;;;;;;;21.42;61.98;100881.25;15860736;28;20039;-59
2021/09/16 15:18:46;;;;;;;1999.90;999.90;;;;;;;21.41;61.99;100876.78;15851680;27;20322;-61
2021/09/16 15:26:19;;;;;;;1999.90;999.90;;;;;;;21.43;61.01;100871.50;15842459;28;20047;-61
2021/09/16 15:33:54;;;;;;;1999.90;999.90;;;;;;;21.09;61.58;100849.13;15854549;28;20040;-60
2021/09/16 15:41:52;;;;;;;1999.90;999.90;;;;;;;21.31;60.48;100852.84;15836997;28;20127;-60
2021/09/16 15:49:51;;;;;;;1999.90;999.90;;;;;;;21.17;60.46;100867.78;15807016;28;20132;-60
2021/09/16 15:57:24;;;;;;;1999.90;999.90;;;;;;;21.17;61.42;100875.50;15844971;28;20054;-60
2021/09/16 16:04:57;;;;;;;1999.90;999.90;;;;;;;20.63;62.19;100865.97;15845966;28;20078;-60
2021/09/16 16:12:30;;;;;;;1999.90;999.90;;;;;;;20.64;61.81;100871.25;15807491;28;20084;-59
2021/09/16 16:20:04;;;;;;;1999.90;999.90;;;;;;;20.57;62.31;100876.06;15848259;28;20068;-60
2021/09/16 16:28:05;;;;;;;1999.90;999.90;;;;;;;20.69;62.77;100885.03;15849069;28;20042;-60
2021/09/16 16:35:37;;;;;;;1999.90;999.90;;;;;;;20.37;62.65;100875.53;15867434;28;20138;-58
2021/09/16 16:43:11;;;;;;;1999.90;999.90;;;;;;;20.56;63.30;100886.59;15867943;28;20036;-60
2021/09/16 16:50:43;;;;;;;1999.90;999.90;;;;;;;20.39;63.06;100896.59;15831727;28;20562;-59
2021/09/16 16:58:16;;;;;;;1999.90;999.90;;;;;;;20.42;63.49;100903.47;15848386;28;20446;-61
2021/09/16 17:05:52;;;;;;;1999.90;999.90;;;;;;;20.30;63.87;100892.47;15866373;28;20139;-59
2021/09/16 17:13:26;;;;;;;1999.90;999.90;;;;;;;20.00;64.66;100899.16;15865778;28;20051;-61
2021/09/16 17:20:58;;;;;;;1999.90;999.90;;;;;;;20.05;64.83;100910.13;15830252;28;20044;-61
2021/09/16 17:28:35;;;;;;;1999.90;999.90;;;;;;;19.81;65.22;100903.06;15865223;28;20052;-59
2021/09/16 17:36:08;;;;;;;1999.90;999.90;;;;;;;19.88;65.28;100903.13;15864873;28;20057;-58
2021/09/16 17:43:42;;;;;;;1999.90;999.90;;;;;;;19.93;65.76;100896.28;15847184;28;20431;-61
2021/09/16 17:51:14;;;;;;;1999.90;999.90;;;;;;;19.73;67.25;100898.53;15847602;28;20055;-61
2021/09/16 17:58:48;;;;;;;1999.90;999.90;;;;;;;19.55;67.72;100906.03;15864121;28;20047;-61
2021/09/16 18:06:24;;;;;;;1999.90;999.90;;;;;;;19.59;67.53;100912.56;15864847;28;20542;-61
2021/09/16 18:13:59;;;;;;;1999.90;999.90;;;;;;;19.55;67.95;100909.69;15829864;28;20044;-61
2021/09/16 18:21:32;;;;;;;1999.90;999.90;;;;;;;19.42;68.25;100911.16;15869164;28;20039;-60
2021/09/16 18:29:08;;;;;;;1999.90;999.90;;;;;;;19.47;68.65;100907.16;15876310;28;20048;-61
2021/09/16 18:36:47;;;;;;;1999.90;999.90;;;;;;;19.25;68.93;100908.94;15875864;28;20055;-60
2021/09/16 18:44:26;;;;;;;1999.90;999.90;;;;;;;19.29;68.88;100913.47;15840429;28;20130;-61
2021/09/16 18:51:58;;;;;;;1999.90;999.90;;;;;;;19.31;68.81;100913.06;15874505;28;20042;-59
2021/09/16 18:59:31;;;;;;;1999.90;999.90;;;;;;;19.31;69.10;100904.56;15854807;28;20048;-60
2021/09/16 19:07:04;;;;;;;1999.90;999.90;;;;;;;19.23;69.50;100908.53;15855143;28;20048;-61
2021/09/16 19:14:39;;;;;;;1999.90;999.90;;;;;;;19.22;69.59;100923.88;15854839;28;20127;-58
2021/09/16 19:22:11;;;;;;;1999.90;999.90;;;;;;;19.27;69.22;100920.69;15872053;28;20051;-60
2021/09/16 19:29:45;;;;;;;1999.90;999.90;;;;;;;19.37;69.50;100922.00;15853695;28;20073;-61
2021/09/16 19:37:21;;;;;;;1999.90;999.90;;;;;;;19.15;70.22;100921.78;15871218;28;20039;-61
2021/09/16 19:45:13;;;;;;;1999.90;999.90;;;;;;;19.23;70.26;100911.34;15871424;28;20050;-61
2021/09/16 19:52:46;;;;;;;1999.90;999.90;;;;;;;18.97;70.87;100920.75;15871193;28;20096;-59
2021/09/16 20:00:20;;;;;;;1999.90;999.90;;;;;;;19.00;70.77;100925.66;15869887;28;20051;-60
2021/09/16 20:07:58;;;;;;;1999.90;999.90;;;;;;;19.11;70.53;100920.13;15869776;28;20074;-58
2021/09/16 20:15:32;;;;;;;1999.90;999.90;;;;;;;19.19;70.32;100919.00;15852003;28;20113;-59
2021/09/16 20:23:04;;;;;;;1999.90;999.90;;;;;;;19.09;70.18;100914.84;15850472;28;20039;-61
2021/09/16 20:30:56;;;;;;;1999.90;999.90;;;;;;;19.31;69.59;100907.41;15868249;28;20096;-60
2021/09/16 20:38:42;;;;;;;1999.90;999.90;;;;;;;19.15;70.28;100918.13;15867099;28;20123;-61
2021/09/16 20:46:41;;;;;;;1999.90;999.90;;;;;;;19.20;69.74;100909.31;15848752;28;20070;-61
2021/09/16 20:54:14;;;;;;;1999.90;999.90;;;;;;;19.10;69.93;100907.97;15861481;28;20134;-61
2021/09/16 21:01:47;;;;;;;1999.90;999.90;;;;;;;19.12;70.08;100904.78;15861639;28;20044;-60
2021/09/16 21:09:20;;;;;;;1999.90;999.90;;;;;;;19.04;70.31;100903.88;15817598;28;20044;-60
2021/09/16 21:16:53;;;;;;;1999.90;999.90;;;;;;;18.92;70.40;100909.78;15819715;28;20492;-60
2021/09/16 21:24:27;;;;;;;1999.90;999.90;;;;;;;18.74;71.14;100898.25;15816450;28;20468;-61
2021/09/16 21:32:04;;;;;;;1999.90;999.90;;;;;;;19.09;70.84;100908.38;15821810;28;20435;-60
2021/09/16 21:39:37;;;;;;;1999.90;999.90;;;;;;;18.89;71.15;100902.06;15842960;28;20131;-61
2021/09/16 21:47:11;;;;;;;1999.90;999.90;;;;;;;18.81;71.60;100903.19;15851023;28;20517;-60
2021/09/16 21:54:45;;;;;;;1999.90;999.90;;;;;;;18.67;72.01;100903.81;15864954;28;20047;-60
2021/09/16 22:02:22;;;;;;;1999.90;999.90;;;;;;;18.56;72.21;100902.84;15840857;28;20489;-57
2021/09/16 22:09:54;;;;;;;1999.90;999.90;;;;;;;18.42;72.94;100903.44;15869651;28;20164;-57
2021/09/16 22:17:28;;;;;;;1999.90;999.90;;;;;;;18.46;73.20;100904.31;15854206;28;20122;-60
2021/09/16 22:25:04;;;;;;;1999.90;999.90;;;;;;;18.23;73.54;100903.56;15861932;28;20549;-61
2021/09/16 22:32:53;;;;;;;1999.90;999.90;;;;;;;18.43;72.95;100907.88;15830723;28;20407;-60
2021/09/16 22:40:25;;;;;;;1999.90;999.90;;;;;;;18.67;72.53;100892.50;15832231;28;20047;-60
2021/09/16 22:48:14;;;;;;;1999.90;999.90;;;;;;;18.44;72.75;100887.75;15843140;28;20043;-58
2021/09/16 22:55:46;;;;;;;1999.90;999.90;;;;;;;18.46;73.04;100879.69;15839639;28;20079;-60
2021/09/16 23:03:19;;;;;;;1999.90;999.90;;;;;;;18.58;72.65;100891.97;15834457;28;20040;-60
2021/09/16 23:10:52;;;;;;;1999.90;999.90;;;;;;;18.61;72.68;100891.19;15835665;28;20071;-57
2021/09/16 23:18:28;;;;;;;1999.90;999.90;;;;;;;18.43;73.26;100890.94;15820137;28;20142;-58
2021/09/16 23:26:04;;;;;;;1999.90;999.90;;;;;;;18.46;73.16;100879.69;15860301;28;20140;-56
2021/09/16 23:34:03;;;;;;;1999.90;999.90;;;;;;;18.43;73.31;100890.94;15849492;28;20070;-60
2021/09/16 23:41:35;;;;;;;1999.90;999.90;;;;;;;18.39;73.53;100881.59;15820723;28;20055;-60
2021/09/16 23:49:37;;;;;;;1999.90;999.90;;;;;;;18.23;74.02;100883.78;15856621;28;20059;-57
2021/09/16 23:57:09;;;;;;;1999.90;999.90;;;;;;;18.46;73.21;100878.88;15846429;28;20051;-60
